This is the latest recevied weather packets stored in our database for station/object W3AJR. If no packets are shown the sender has not sent any weather packets the latest 10 day(s).
| Time | Temp. | Humidity | Pressure | Rain* | Wind** | Luminosity | Snow |
|---|---|---|---|---|---|---|---|
| 1777585290 | 18.33° C | 37% | 1009.2 hPa | 0 mm | - | 49 W/m² | - |
| 1777584984 | 18.89° C | 35% | 1009.3 hPa | 0 mm | - | 54 W/m² | - |
| 1777584682 | 19.44° C | 36% | 1009.2 hPa | 0 mm | - | 52 W/m² | - |
| 1777584379 | 19.44° C | 37% | 1009.3 hPa | 0 mm | - | 53 W/m² | - |
| 1777584075 | 19.44° C | 36% | 1009.1 hPa | 0 mm | - | 56 W/m² | - |
| 1777583769 | 19.44° C | 37% | 1009 hPa | 0 mm | - | 56 W/m² | - |
| 1777583469 | 19.44° C | 36% | 1008.9 hPa | 0 mm | - | 60 W/m² | - |
| 1777583163 | 20° C | 35% | 1008.8 hPa | 0 mm | - | 115 W/m² | - |
| 1777582859 | 19.44° C | 35% | 1008.8 hPa | 0 mm | - | 434 W/m² | - |
| 1777582556 | 19.44° C | 35% | 1008.7 hPa | 0 mm | - | 442 W/m² | - |
| 1777582251 | 20° C | 35% | 1008.6 hPa | 0 mm | - | 443 W/m² | - |
| 1777581949 | 20° C | 36% | 1008.4 hPa | 0 mm | - | 386 W/m² | - |
| 1777581644 | 20° C | 34% | 1008.8 hPa | 0 mm | - | 483 W/m² | - |
| 1777581338 | 20° C | 34% | 1008.9 hPa | 0 mm | - | 485 W/m² | - |
| 1777581034 | 20.56° C | 37% | 1008.6 hPa | 0 mm | - | 533 W/m² | - |
| 1777580733 | 20° C | 35% | 1008.6 hPa | 0 mm | - | 534 W/m² | - |
| 1777580430 | 20° C | 35% | 1008.5 hPa | 0 mm | - | 554 W/m² | - |
| 1777580125 | 20° C | 35% | 1008.3 hPa | 0 mm | - | 604 W/m² | - |
| 1777579822 | 20° C | 34% | 1008.7 hPa | 0 mm | - | 588 W/m² | - |
| 1777579521 | 20° C | 37% | 1008.3 hPa | 0 mm | - | 589 W/m² | - |
| 1777579215 | 20.56° C | 36% | 1008.3 hPa | 0 mm | - | 604 W/m² | - |
| 1777578911 | 20.56° C | 36% | 1008.5 hPa | 0 mm | - | 587 W/m² | - |
| 1777578606 | 20.56° C | 36% | 1008.4 hPa | 0 mm | - | 600 W/m² | - |
| 1777578301 | 20.56° C | 38% | 1008.4 hPa | 0 mm | - | 607 W/m² | - |
| 1777577996 | 21.11° C | 38% | 1008 hPa | 0 mm | - | 605 W/m² | - |
* Rain latest hour (hover to see other rain measurements)
** Current wind speed in m/s (hover to see current wind gust speed)